createdAt,value
2023-03-28T00:00:13.836Z,45.31
2023-03-28T00:02:42.411Z,44.27
2023-03-28T00:05:09.608Z,44.50
2023-03-28T00:07:36.517Z,44.96
2023-03-28T00:10:03.889Z,46.21
2023-03-28T00:12:30.764Z,46.90
2023-03-28T00:14:57.757Z,46.17
2023-03-28T00:17:25.340Z,43.56
2023-03-28T00:19:53.597Z,42.81
2023-03-28T00:22:21.284Z,44.54
2023-03-28T00:24:48.939Z,43.90
2023-03-28T00:27:16.175Z,43.84
2023-03-28T00:29:43.295Z,44.12
2023-03-28T00:32:11.123Z,42.19
2023-03-28T00:34:37.967Z,41.62
2023-03-28T00:37:05.570Z,43.88
2023-03-28T00:39:32.471Z,42.55
2023-03-28T00:42:03.469Z,43.90
2023-03-28T00:44:51.932Z,44.90
2023-03-28T00:47:27.570Z,41.65
2023-03-28T00:49:59.237Z,42.98
2023-03-28T00:52:30.402Z,42.21
2023-03-28T00:54:58.920Z,42.14
2023-03-28T00:57:28.127Z,41.76
2023-03-28T00:59:55.547Z,43.03
2023-03-28T01:02:23.122Z,41.61
2023-03-28T01:04:57.916Z,42.81
2023-03-28T01:07:29.174Z,45.71
2023-03-28T01:09:56.218Z,45.04
2023-03-28T01:12:23.937Z,45.01
2023-03-28T01:14:51.777Z,44.87
2023-03-28T01:17:18.713Z,44.27
2023-03-28T01:19:50.474Z,45.88
2023-03-28T01:22:23.055Z,46.43
2023-03-28T01:25:14.853Z,45.12
2023-03-28T01:27:52.105Z,44.94
2023-03-28T01:31:08.257Z,44.29
2023-03-28T01:33:57.461Z,44.59
2023-03-28T01:37:14.983Z,43.79
2023-03-28T01:40:06.423Z,44.79
2023-03-28T01:42:41.809Z,45.48
2023-03-28T01:45:22.687Z,44.54
2023-03-28T01:47:53.927Z,46.48
2023-03-28T01:50:26.157Z,44.90
2023-03-28T01:53:11.371Z,43.62
2023-03-28T01:55:48.898Z,44.35
2023-03-28T01:58:46.535Z,45.80
2023-03-28T02:01:30.325Z,45.01
2023-03-28T02:04:06.425Z,44.93
2023-03-28T02:06:57.048Z,44.12
2023-03-28T02:09:29.757Z,43.83
2023-03-28T02:12:17.857Z,44.38
2023-03-28T02:15:08.643Z,42.48
2023-03-28T02:17:52.988Z,42.29
2023-03-28T02:20:41.610Z,43.86
2023-03-28T02:23:23.893Z,42.93
2023-03-28T02:26:24.608Z,43.44
2023-03-28T02:28:59.631Z,42.51
2023-03-28T02:31:35.069Z,42.20
2023-03-28T02:34:03.232Z,42.55
2023-03-28T02:36:38.918Z,43.67
2023-03-28T02:39:27.299Z,43.08
2023-03-28T02:41:59.700Z,42.81
2023-03-28T02:44:32.684Z,44.01
2023-03-28T02:47:23.995Z,44.93
2023-03-28T02:50:02.833Z,43.29
2023-03-28T02:52:59.818Z,44.26
2023-03-28T02:55:39.411Z,43.77
2023-03-28T02:58:21.662Z,44.48
2023-03-28T03:00:49.323Z,43.16
2023-03-28T03:03:16.844Z,44.77
2023-03-28T03:05:44.050Z,44.27
2023-03-28T03:08:11.906Z,43.44
2023-03-28T03:10:38.694Z,43.35
2023-03-28T03:13:05.616Z,42.78
2023-03-28T03:15:32.545Z,43.81
2023-03-28T03:18:06.050Z,44.31
2023-03-28T03:20:34.513Z,45.62
2023-03-28T03:23:03.271Z,44.74
2023-03-28T03:25:33.604Z,44.94
2023-03-28T03:28:27.213Z,45.55
2023-03-28T03:30:54.651Z,46.45
2023-03-28T03:33:41.651Z,46.36
2023-03-28T03:36:12.726Z,46.20
2023-03-28T03:38:40.706Z,47.06
2023-03-28T03:41:09.040Z,44.85
2023-03-28T03:43:36.085Z,45.24
2023-03-28T03:46:03.194Z,45.18
2023-03-28T03:48:30.353Z,45.69
2023-03-28T03:50:59.000Z,45.72
2023-03-28T03:53:26.130Z,45.81
2023-03-28T03:56:02.515Z,46.64
2023-03-28T03:58:40.832Z,45.35
2023-03-28T04:01:14.120Z,45.13
2023-03-28T04:03:42.583Z,44.67
2023-03-28T04:06:11.953Z,44.99
2023-03-28T04:08:38.823Z,44.99
2023-03-28T04:11:07.953Z,43.75
2023-03-28T04:13:39.223Z,44.53
2023-03-28T04:16:08.001Z,44.42
2023-03-28T04:18:40.651Z,45.48
2023-03-28T04:21:09.851Z,44.56
2023-03-28T04:23:43.877Z,43.98
2023-03-28T04:26:50.151Z,45.31
2023-03-28T04:29:19.313Z,45.40
2023-03-28T04:32:06.666Z,44.79
2023-03-28T04:34:56.736Z,45.03
2023-03-28T04:37:24.856Z,44.05
2023-03-28T04:39:55.814Z,44.16
2023-03-28T04:42:45.988Z,43.67
2023-03-28T04:45:19.251Z,43.62
2023-03-28T04:47:48.755Z,43.69
2023-03-28T04:50:17.927Z,44.11
2023-03-28T04:52:44.949Z,43.82
2023-03-28T04:55:12.286Z,43.98
2023-03-28T04:57:40.402Z,42.42
2023-03-28T05:00:10.414Z,42.47
2023-03-28T05:02:56.804Z,42.36
2023-03-28T05:05:26.265Z,41.52
2023-03-28T05:07:53.668Z,42.59
2023-03-28T05:10:21.980Z,41.31
2023-03-28T05:12:50.657Z,41.79
2023-03-28T05:15:22.537Z,41.90
2023-03-28T05:18:09.154Z,41.87
2023-03-28T05:20:37.234Z,42.30
2023-03-28T05:23:06.226Z,41.42
2023-03-28T05:25:36.585Z,41.52
2023-03-28T05:28:04.456Z,40.52
2023-03-28T05:30:32.804Z,41.07
2023-03-28T05:33:00.676Z,40.88
2023-03-28T05:35:29.281Z,40.77
2023-03-28T05:37:57.283Z,41.23
2023-03-28T05:40:24.188Z,41.12
2023-03-28T05:42:51.371Z,42.19
2023-03-28T05:45:20.463Z,42.30
2023-03-28T05:48:06.238Z,41.75
2023-03-28T05:50:36.475Z,41.78
2023-03-28T05:53:06.679Z,41.43
2023-03-28T05:55:35.697Z,41.29
2023-03-28T05:58:04.127Z,41.07
2023-03-28T06:00:37.494Z,42.32
2023-03-28T06:03:07.622Z,42.58
2023-03-28T06:05:39.473Z,41.68
2023-03-28T06:08:16.296Z,41.39
2023-03-28T06:10:43.294Z,42.41
2023-03-28T06:13:30.745Z,40.64
2023-03-28T06:15:58.071Z,40.40
2023-03-28T06:18:31.286Z,40.93
2023-03-28T06:20:58.383Z,40.67
2023-03-28T06:23:25.556Z,40.22
2023-03-28T06:25:52.404Z,40.10
2023-03-28T06:28:20.735Z,40.04
2023-03-28T06:31:16.621Z,40.12
2023-03-28T06:33:44.704Z,40.26
2023-03-28T06:36:12.259Z,38.25
2023-03-28T06:38:39.326Z,39.01
2023-03-28T06:41:07.063Z,37.89
2023-03-28T06:43:35.443Z,39.27
2023-03-28T06:46:07.468Z,38.40
2023-03-28T06:48:36.726Z,36.67
2023-03-28T06:51:21.994Z,36.95
2023-03-28T06:53:49.167Z,37.11
2023-03-28T06:56:20.554Z,37.57
2023-03-28T06:58:47.515Z,36.69
2023-03-28T07:01:17.877Z,36.50
2023-03-28T07:04:06.289Z,36.71
2023-03-28T07:06:34.851Z,36.27
2023-03-28T07:09:03.423Z,35.95
2023-03-28T07:11:41.934Z,36.06
2023-03-28T07:14:09.529Z,36.50
2023-03-28T07:16:36.399Z,36.57
2023-03-28T07:19:03.726Z,38.46
2023-03-28T07:21:33.968Z,37.81
2023-03-28T07:24:02.898Z,37.00
2023-03-28T07:26:40.076Z,37.17
2023-03-28T07:29:08.704Z,35.15
2023-03-28T07:31:35.634Z,35.36
2023-03-28T07:34:02.774Z,36.59
2023-03-28T07:36:29.765Z,35.96
2023-03-28T07:39:05.227Z,35.50
2023-03-28T07:41:32.048Z,36.58
2023-03-28T07:43:59.280Z,36.72
2023-03-28T07:46:26.424Z,37.01
2023-03-28T07:48:55.654Z,36.65
2023-03-28T07:51:22.515Z,36.45
2023-03-28T07:53:49.288Z,35.89
2023-03-28T07:56:16.262Z,34.12
2023-03-28T07:59:02.039Z,33.85
2023-03-28T08:01:28.990Z,32.93
2023-03-28T08:04:00.939Z,34.99
2023-03-28T08:06:38.440Z,34.89
2023-03-28T08:09:10.138Z,33.26
2023-03-28T08:11:43.957Z,33.44
2023-03-28T08:14:13.648Z,33.45
2023-03-28T08:16:41.400Z,32.04
2023-03-28T08:19:11.645Z,33.78
2023-03-28T08:22:02.722Z,33.37
2023-03-28T08:24:36.156Z,34.05
2023-03-28T08:27:11.958Z,31.83
2023-03-28T08:29:39.921Z,32.34
2023-03-28T08:32:07.756Z,32.88
2023-03-28T08:34:35.509Z,33.57
2023-03-28T08:37:08.505Z,33.85
2023-03-28T08:39:37.447Z,34.60
2023-03-28T08:42:22.777Z,33.89
2023-03-28T08:45:01.303Z,33.79
2023-03-28T08:47:33.150Z,31.55
2023-03-28T08:50:22.115Z,30.00
2023-03-28T08:52:49.270Z,32.40
2023-03-28T08:55:49.783Z,31.11
2023-03-28T08:58:21.618Z,31.19
2023-03-28T09:00:50.755Z,31.90
2023-03-28T09:03:20.925Z,30.73
2023-03-28T09:06:13.513Z,30.44
2023-03-28T09:08:52.341Z,30.71
2023-03-28T09:11:54.325Z,31.15
2023-03-28T09:14:30.252Z,30.30
2023-03-28T09:17:18.046Z,30.48
2023-03-28T09:20:19.433Z,28.23
2023-03-28T09:23:16.504Z,27.51
2023-03-28T09:26:10.160Z,25.27
2023-03-28T09:28:57.570Z,26.33
2023-03-28T09:31:31.042Z,27.61
2023-03-28T09:34:02.407Z,25.88
2023-03-28T09:36:49.039Z,26.23
2023-03-28T09:39:33.418Z,25.54
2023-03-28T09:42:17.336Z,25.59
2023-03-28T09:45:07.920Z,25.94
2023-03-28T09:47:53.461Z,25.25
2023-03-28T09:50:23.908Z,26.50
2023-03-28T09:52:58.078Z,25.62
2023-03-28T09:55:28.151Z,25.79
2023-03-28T09:58:08.317Z,25.28
2023-03-28T10:01:30.592Z,26.93
2023-03-28T10:04:38.086Z,26.88
2023-03-28T10:07:43.324Z,27.92
2023-03-28T10:10:23.583Z,26.36
2023-03-28T10:13:13.118Z,25.65
2023-03-28T10:15:50.131Z,23.69
2023-03-28T10:18:21.965Z,25.13
2023-03-28T10:21:17.404Z,24.34
2023-03-28T10:23:58.093Z,24.81
2023-03-28T10:26:26.725Z,24.27
2023-03-28T10:28:58.348Z,25.12
2023-03-28T10:31:31.917Z,26.78
2023-03-28T10:34:33.659Z,25.29
2023-03-28T10:37:31.799Z,26.17
2023-03-28T10:40:22.809Z,26.46
2023-03-28T10:43:13.568Z,24.64
2023-03-28T10:45:45.534Z,26.01
2023-03-28T10:48:21.418Z,24.80
2023-03-28T10:50:53.466Z,29.00
2023-03-28T10:53:49.325Z,27.49
2023-03-28T10:56:33.637Z,27.53
2023-03-28T10:59:21.846Z,27.74
2023-03-28T11:02:27.837Z,32.73
2023-03-28T11:05:03.985Z,43.75
2023-03-28T11:07:37.506Z,45.86
2023-03-28T11:10:25.005Z,47.18
2023-03-28T11:13:35.415Z,47.06
2023-03-28T11:16:07.362Z,45.23
2023-03-28T11:19:04.308Z,41.35
2023-03-28T11:22:02.407Z,34.47
2023-03-28T11:24:40.162Z,31.43
2023-03-28T11:27:29.054Z,32.58
2023-03-28T11:30:16.012Z,30.17
2023-03-28T11:33:19.391Z,31.12
2023-03-28T11:35:57.112Z,31.42
2023-03-28T11:38:32.286Z,32.55
2023-03-28T11:41:04.419Z,31.03
2023-03-28T11:44:03.103Z,30.23
2023-03-28T11:46:32.181Z,28.78
2023-03-28T11:49:08.234Z,29.04
2023-03-28T11:51:45.760Z,30.42
2023-03-28T11:54:18.890Z,31.29
2023-03-28T11:57:04.127Z,30.96
2023-03-28T11:59:57.609Z,31.77
2023-03-28T12:02:36.766Z,31.16
2023-03-28T12:05:27.173Z,33.95
2023-03-28T12:08:09.234Z,31.11
2023-03-28T12:10:38.267Z,30.92
2023-03-28T12:13:15.828Z,28.22
2023-03-28T12:15:57.431Z,30.39
2023-03-28T12:18:27.211Z,30.60
2023-03-28T12:20:56.292Z,36.60
2023-03-28T12:24:00.032Z,39.34
2023-03-28T12:27:06.904Z,37.88
2023-03-28T12:29:43.331Z,36.40
2023-03-28T12:32:29.962Z,35.09
2023-03-28T12:35:25.121Z,33.81
2023-03-28T12:38:06.835Z,33.54
2023-03-28T12:41:00.661Z,32.41
2023-03-28T12:43:45.014Z,31.39
2023-03-28T12:46:21.415Z,31.09
2023-03-28T12:49:00.878Z,32.02
2023-03-28T12:51:53.873Z,30.76
2023-03-28T12:54:32.008Z,32.57
2023-03-28T12:57:08.108Z,29.66
2023-03-28T13:00:03.179Z,30.59
2023-03-28T13:02:58.682Z,29.25
2023-03-28T13:06:21.116Z,30.19
2023-03-28T13:09:25.911Z,30.67
2023-03-28T13:12:26.642Z,29.27
2023-03-28T13:15:03.027Z,30.25
2023-03-28T13:17:33.037Z,29.89
2023-03-28T13:20:08.780Z,29.52
2023-03-28T13:22:58.194Z,30.83
2023-03-28T13:25:27.768Z,31.85
2023-03-28T13:27:58.250Z,35.94
2023-03-28T13:30:29.389Z,39.12
2023-03-28T13:33:03.447Z,39.18
2023-03-28T13:36:13.252Z,39.14
2023-03-28T13:38:53.503Z,38.53
2023-03-28T13:41:55.384Z,36.79
2023-03-28T13:44:29.864Z,36.02
2023-03-28T13:46:57.450Z,36.72
2023-03-28T13:49:32.224Z,34.12
2023-03-28T13:52:04.811Z,33.86
2023-03-28T13:54:32.147Z,31.53
2023-03-28T13:57:17.710Z,31.48
2023-03-28T13:59:51.851Z,27.71
2023-03-28T14:02:33.309Z,27.88
2023-03-28T14:05:20.125Z,27.17
2023-03-28T14:07:48.077Z,26.06
2023-03-28T14:10:28.227Z,26.30
2023-03-28T14:12:58.718Z,25.95
2023-03-28T14:15:30.492Z,27.76
2023-03-28T14:17:59.674Z,28.86
2023-03-28T14:20:26.837Z,30.03
2023-03-28T14:23:00.401Z,30.65
2023-03-28T14:25:29.662Z,32.23
2023-03-28T14:27:57.386Z,32.90
2023-03-28T14:30:37.267Z,32.73
2023-03-28T14:33:18.669Z,33.31
2023-03-28T14:35:57.727Z,34.48
2023-03-28T14:38:29.044Z,33.05
2023-03-28T14:41:16.005Z,32.68
2023-03-28T14:43:42.888Z,34.31
2023-03-28T14:46:11.238Z,33.28
2023-03-28T14:48:39.297Z,33.66
2023-03-28T14:51:06.877Z,35.24
2023-03-28T14:53:42.512Z,36.24
2023-03-28T14:56:13.267Z,41.66
2023-03-28T14:58:43.944Z,48.57
2023-03-28T15:01:22.873Z,52.85
2023-03-28T15:04:05.530Z,59.09
2023-03-28T15:06:33.858Z,65.48
2023-03-28T15:09:11.654Z,65.48
2023-03-28T15:11:43.477Z,60.89
2023-03-28T15:14:27.307Z,59.35
2023-03-28T15:16:55.967Z,57.85
2023-03-28T15:19:28.989Z,59.06
2023-03-28T15:22:01.260Z,62.18
2023-03-28T15:24:28.912Z,64.30
2023-03-28T15:27:01.718Z,66.20
2023-03-28T15:29:34.000Z,67.59
2023-03-28T15:32:17.317Z,66.81
2023-03-28T15:35:01.103Z,67.33
2023-03-28T15:37:28.331Z,66.94
2023-03-28T15:40:12.439Z,67.18
2023-03-28T15:42:39.741Z,66.19
2023-03-28T15:45:29.148Z,64.82
2023-03-28T15:47:57.259Z,65.36
2023-03-28T15:50:38.704Z,63.03
2023-03-28T15:53:14.943Z,61.12
2023-03-28T15:55:43.727Z,61.71
2023-03-28T15:58:20.495Z,60.18
2023-03-28T16:00:53.166Z,61.32
2023-03-28T16:03:34.118Z,59.68
2023-03-28T16:06:41.313Z,56.45
2023-03-28T16:09:22.951Z,56.03
2023-03-28T16:11:59.459Z,58.25
2023-03-28T16:14:48.890Z,58.41
2023-03-28T16:17:43.400Z,58.60
2023-03-28T16:20:27.322Z,58.19
2023-03-28T16:22:57.588Z,57.55
2023-03-28T16:25:24.670Z,58.54
2023-03-28T16:27:51.495Z,56.89
2023-03-28T16:30:23.321Z,56.75
2023-03-28T16:32:50.286Z,58.20
2023-03-28T16:35:17.326Z,56.64
2023-03-28T16:37:44.233Z,56.64
2023-03-28T16:40:11.682Z,55.08
2023-03-28T16:42:38.769Z,50.84
2023-03-28T16:45:06.887Z,50.08
2023-03-28T16:47:33.882Z,51.60
2023-03-28T16:50:00.856Z,53.30
2023-03-28T16:52:29.703Z,54.39
2023-03-28T16:54:57.125Z,53.32
2023-03-28T16:57:24.272Z,53.97
2023-03-28T16:59:51.409Z,61.68
2023-03-28T17:02:18.579Z,67.65
2023-03-28T17:04:50.996Z,71.38
2023-03-28T17:07:18.359Z,75.78
2023-03-28T17:09:45.208Z,77.66
2023-03-28T17:12:12.275Z,78.16
2023-03-28T17:14:39.413Z,78.95
2023-03-28T17:17:08.134Z,79.20
2023-03-28T17:19:35.456Z,80.18
2023-03-28T17:22:02.677Z,80.67
2023-03-28T17:24:30.109Z,81.12
2023-03-28T17:26:57.281Z,81.43
2023-03-28T17:29:24.817Z,82.24
2023-03-28T17:31:52.752Z,82.36
2023-03-28T17:34:19.962Z,82.52
2023-03-28T17:36:47.224Z,82.48
2023-03-28T17:39:14.331Z,82.65
2023-03-28T17:41:41.844Z,82.84
2023-03-28T17:44:09.316Z,82.94
2023-03-28T17:46:36.845Z,82.81
2023-03-28T17:49:04.188Z,82.65
2023-03-28T17:51:31.138Z,82.87
2023-03-28T17:53:58.583Z,82.69
2023-03-28T17:56:26.050Z,82.81
2023-03-28T17:58:52.894Z,83.16
2023-03-28T18:01:20.375Z,83.62
2023-03-28T18:03:47.594Z,84.24
2023-03-28T18:06:31.315Z,84.84
2023-03-28T18:08:59.401Z,85.09
2023-03-28T18:11:26.911Z,84.96
2023-03-28T18:13:57.158Z,84.26
2023-03-28T18:16:26.723Z,84.14
2023-03-28T18:18:54.346Z,83.90
2023-03-28T18:21:21.925Z,83.65
2023-03-28T18:23:49.348Z,83.57
2023-03-28T18:26:16.624Z,83.75
2023-03-28T18:28:43.644Z,83.81
2023-03-28T18:31:16.870Z,83.78
2023-03-28T18:33:44.953Z,83.78
2023-03-28T18:36:13.486Z,83.37
2023-03-28T18:38:43.502Z,83.04
2023-03-28T18:41:12.851Z,82.92
2023-03-28T18:43:42.169Z,83.02
2023-03-28T18:46:15.801Z,83.08
2023-03-28T18:48:43.798Z,83.17
2023-03-28T18:51:10.742Z,83.33
2023-03-28T18:53:40.464Z,83.35
2023-03-28T18:56:08.595Z,83.53
2023-03-28T18:58:37.160Z,83.55
2023-03-28T19:01:04.944Z,84.08
2023-03-28T19:03:38.604Z,83.88
2023-03-28T19:06:06.600Z,83.52
2023-03-28T19:08:33.845Z,83.46
2023-03-28T19:11:07.700Z,83.50
2023-03-28T19:13:34.712Z,83.87
2023-03-28T19:16:16.028Z,84.03
2023-03-28T19:18:44.668Z,84.39
2023-03-28T19:21:12.211Z,84.48
2023-03-28T19:23:39.879Z,84.58
2023-03-28T19:26:08.345Z,84.32
2023-03-28T19:28:35.772Z,84.17
2023-03-28T19:31:06.953Z,84.29
2023-03-28T19:33:35.656Z,84.29
2023-03-28T19:36:06.166Z,84.37
2023-03-28T19:38:35.689Z,84.27
2023-03-28T19:41:10.428Z,84.01
2023-03-28T19:43:38.879Z,83.82
2023-03-28T19:46:11.307Z,84.23
2023-03-28T19:48:42.278Z,84.22
2023-03-28T19:51:09.557Z,84.14
2023-03-28T19:53:43.229Z,84.12
2023-03-28T19:56:12.140Z,84.16
2023-03-28T19:58:39.105Z,84.19
2023-03-28T20:01:07.064Z,84.45
2023-03-28T20:03:35.031Z,84.71
2023-03-28T20:06:08.256Z,84.93
2023-03-28T20:08:36.219Z,84.83
2023-03-28T20:11:04.853Z,84.42
2023-03-28T20:13:31.857Z,83.80
2023-03-28T20:16:02.134Z,83.40
2023-03-28T20:18:29.624Z,82.99
2023-03-28T20:21:02.505Z,82.84
2023-03-28T20:23:32.615Z,82.98
2023-03-28T20:26:01.653Z,83.07
2023-03-28T20:28:32.545Z,83.21
2023-03-28T20:30:59.706Z,83.49
2023-03-28T20:33:27.100Z,83.70
2023-03-28T20:35:59.149Z,83.96
2023-03-28T20:38:27.359Z,83.97
2023-03-28T20:40:54.328Z,83.69
2023-03-28T20:43:21.610Z,83.42
2023-03-28T20:45:55.490Z,82.91
2023-03-28T20:48:34.574Z,82.55
2023-03-28T20:51:05.799Z,82.42
2023-03-28T20:53:34.879Z,82.58
2023-03-28T20:56:06.622Z,82.46
2023-03-28T20:58:34.675Z,82.58
2023-03-28T21:01:02.596Z,82.42
2023-03-28T21:03:48.601Z,83.03
2023-03-28T21:06:20.497Z,82.83
2023-03-28T21:08:49.822Z,82.90
2023-03-28T21:11:19.376Z,83.10
2023-03-28T21:13:46.294Z,83.47
2023-03-28T21:16:17.416Z,83.87
2023-03-28T21:18:45.762Z,83.91
2023-03-28T21:21:14.684Z,83.58
2023-03-28T21:23:42.643Z,83.41
2023-03-28T21:26:12.453Z,83.07
2023-03-28T21:28:39.437Z,83.04
2023-03-28T21:31:15.668Z,82.95
2023-03-28T21:33:43.136Z,83.20
2023-03-28T21:36:13.100Z,83.75
2023-03-28T21:38:41.091Z,83.87
2023-03-28T21:41:09.041Z,83.52
2023-03-28T21:43:36.313Z,83.41
2023-03-28T21:46:04.021Z,83.21
2023-03-28T21:48:31.806Z,83.02
2023-03-28T21:50:59.876Z,83.20
2023-03-28T21:53:29.386Z,83.19
2023-03-28T21:55:57.060Z,83.13
2023-03-28T21:58:24.104Z,83.09
2023-03-28T22:00:51.116Z,83.29
2023-03-28T22:03:18.753Z,83.42
2023-03-28T22:05:46.401Z,83.68
2023-03-28T22:08:13.906Z,84.03
2023-03-28T22:10:56.649Z,84.32
2023-03-28T22:13:23.998Z,83.98
2023-03-28T22:15:52.462Z,83.84
2023-03-28T22:18:20.650Z,83.74
2023-03-28T22:20:53.369Z,84.02
2023-03-28T22:23:24.043Z,83.96
2023-03-28T22:25:53.050Z,83.63
2023-03-28T22:28:24.541Z,83.40
2023-03-28T22:30:56.307Z,83.45
2023-03-28T22:33:24.204Z,83.74
2023-03-28T22:35:51.778Z,84.02
2023-03-28T22:38:19.597Z,84.42
2023-03-28T22:40:47.628Z,84.02
2023-03-28T22:43:14.984Z,84.05
2023-03-28T22:45:41.996Z,83.90
2023-03-28T22:48:16.171Z,84.00
2023-03-28T22:50:44.403Z,83.61
2023-03-28T22:53:12.505Z,83.62
2023-03-28T22:55:39.355Z,83.59
2023-03-28T22:58:06.323Z,84.20
2023-03-28T23:00:33.340Z,84.14
2023-03-28T23:03:01.673Z,84.28
2023-03-28T23:05:29.106Z,84.10
2023-03-28T23:07:56.101Z,84.19
2023-03-28T23:10:23.211Z,84.51
2023-03-28T23:12:50.168Z,84.53
2023-03-28T23:15:16.987Z,84.64
2023-03-28T23:17:44.491Z,84.31
2023-03-28T23:20:13.136Z,84.32
2023-03-28T23:22:45.167Z,84.52
2023-03-28T23:25:13.123Z,84.81
2023-03-28T23:27:40.627Z,84.38
2023-03-28T23:30:10.103Z,83.91
2023-03-28T23:32:37.569Z,83.80
2023-03-28T23:35:05.779Z,83.86
2023-03-28T23:37:34.408Z,83.93
2023-03-28T23:40:01.532Z,84.44
2023-03-28T23:42:28.523Z,84.34
2023-03-28T23:44:55.414Z,84.17
2023-03-28T23:47:22.351Z,84.13
2023-03-28T23:49:49.157Z,84.26
2023-03-28T23:52:16.477Z,84.32
2023-03-28T23:54:44.264Z,84.12
2023-03-28T23:57:11.467Z,84.23
2023-03-28T23:59:38.434Z,84.25
